Time;durP1;ratioP1;P1;durP2;ratioP2;P2;SDS_P1;SDS_P2;PMS_P1;PMS_P2;Temp;Humidity;BMP_temperature;BMP_pressure;BME280_temperature;BME280_humidity;BME280_pressure;Samples;Min_cycle;Max_cycle;Signal;HPM_P1;HPM_P2
2023/08/06 00:02:01;;;;;;;21.60;13.75;;;;;;;;;;4898590;29;20041;-60
2023/08/06 00:04:27;;;;;;;22.13;14.35;;;;;;;;;;4899015;29;20051;-60
2023/08/06 00:06:52;;;;;;;20.65;13.55;;;;;;;;;;4899686;29;20123;-60
2023/08/06 00:09:17;;;;;;;23.02;13.57;;;;;;;;;;4907656;29;20028;-59
2023/08/06 00:11:43;;;;;;;20.65;13.45;;;;;;;;;;4914116;29;20047;-60
2023/08/06 00:14:09;;;;;;;22.88;13.18;;;;;;;;;;4914486;29;20039;-59
2023/08/06 00:16:35;;;;;;;20.83;13.75;;;;;;;;;;4915959;29;20032;-61
2023/08/06 00:19:00;;;;;;;22.13;14.18;;;;;;;;;;4912961;29;20047;-61
2023/08/06 00:21:26;;;;;;;21.90;13.25;;;;;;;;;;4912905;29;20028;-61
2023/08/06 00:23:52;;;;;;;20.83;12.65;;;;;;;;;;4915909;29;20047;-61
2023/08/06 00:26:17;;;;;;;24.63;12.48;;;;;;;;;;4911191;29;20042;-61
2023/08/06 00:28:42;;;;;;;25.60;13.75;;;;;;;;;;4900409;29;20024;-61
2023/08/06 00:31:08;;;;;;;21.08;13.18;;;;;;;;;;4907968;29;20180;-61
2023/08/06 00:33:33;;;;;;;18.92;12.95;;;;;;;;;;4905205;29;20492;-60
2023/08/06 00:35:59;;;;;;;21.67;13.40;;;;;;;;;;4917085;29;20470;-60
2023/08/06 00:38:24;;;;;;;21.80;14.00;;;;;;;;;;4888665;29;20100;-60
2023/08/06 00:40:49;;;;;;;25.50;14.13;;;;;;;;;;4900807;29;20028;-60
2023/08/06 00:43:15;;;;;;;24.52;14.20;;;;;;;;;;4907811;29;20438;-60
2023/08/06 00:45:40;;;;;;;29.50;14.45;;;;;;;;;;4914110;29;20032;-60
2023/08/06 00:48:07;;;;;;;24.25;14.13;;;;;;;;;;4915483;29;20032;-61
2023/08/06 00:50:32;;;;;;;22.55;13.57;;;;;;;;;;4906294;29;20037;-60
2023/08/06 00:52:58;;;;;;;21.13;13.70;;;;;;;;;;4900087;29;20032;-60
2023/08/06 00:55:24;;;;;;;22.42;13.32;;;;;;;;;;4896907;29;20375;-60
2023/08/06 00:57:51;;;;;;;22.95;12.90;;;;;;;;;;4907978;29;20044;-60
2023/08/06 01:00:16;;;;;;;21.08;13.20;;;;;;;;;;4897223;29;20025;-60
2023/08/06 01:02:42;;;;;;;19.90;12.43;;;;;;;;;;4897543;29;20044;-60
2023/08/06 01:05:07;;;;;;;21.42;12.52;;;;;;;;;;4878147;29;20044;-60
2023/08/06 01:08:00;;;;;;;19.20;12.95;;;;;;;;;;4898357;29;20032;-60
2023/08/06 01:10:51;;;;;;;21.73;12.80;;;;;;;;;;4898298;29;20036;-60
2023/08/06 01:13:43;;;;;;;22.23;12.15;;;;;;;;;;4907534;29;20095;-60
2023/08/06 01:16:09;;;;;;;21.13;12.98;;;;;;;;;;4909865;29;20048;-60
2023/08/06 01:18:37;;;;;;;18.67;11.70;;;;;;;;;;4897569;29;20422;-60
2023/08/06 01:21:02;;;;;;;21.08;11.88;;;;;;;;;;4896487;29;20079;-61
2023/08/06 01:23:28;;;;;;;23.55;11.60;;;;;;;;;;4911039;29;20067;-61
2023/08/06 01:26:10;;;;;;;17.35;10.93;;;;;;;;;;4915571;29;20067;-61
2023/08/06 01:28:56;;;;;;;14.80;10.40;;;;;;;;;;4897529;29;20036;-61
2023/08/06 01:31:26;;;;;;;16.83;10.20;;;;;;;;;;4883786;29;20271;-60
2023/08/06 01:33:53;;;;;;;15.38;10.38;;;;;;;;;;4862545;29;20043;-60
2023/08/06 01:36:20;;;;;;;17.15;9.88;;;;;;;;;;4898830;29;20044;-60
2023/08/06 01:38:46;;;;;;;16.42;10.05;;;;;;;;;;4911054;29;20497;-61
2023/08/06 01:41:11;;;;;;;17.33;9.63;;;;;;;;;;4913607;29;20032;-60
2023/08/06 01:43:37;;;;;;;14.50;9.63;;;;;;;;;;4898227;29;20540;-60
2023/08/06 01:46:02;;;;;;;13.50;9.32;;;;;;;;;;4915477;29;20032;-60
2023/08/06 01:48:28;;;;;;;12.63;8.90;;;;;;;;;;4912425;29;20097;-60
2023/08/06 01:50:53;;;;;;;15.15;8.73;;;;;;;;;;4907780;29;20180;-60
2023/08/06 01:53:18;;;;;;;15.15;8.90;;;;;;;;;;4901075;29;20039;-59
2023/08/06 01:55:48;;;;;;;12.18;8.35;;;;;;;;;;4907045;29;20466;-59
2023/08/06 01:58:13;;;;;;;14.00;8.68;;;;;;;;;;4895412;29;20055;-59
2023/08/06 02:00:40;;;;;;;13.88;8.75;;;;;;;;;;4895435;29;20044;-59
2023/08/06 02:03:05;;;;;;;11.23;8.10;;;;;;;;;;4895453;29;20033;-60
2023/08/06 02:05:30;;;;;;;12.32;8.18;;;;;;;;;;4896111;29;20461;-59
2023/08/06 02:07:56;;;;;;;13.35;8.25;;;;;;;;;;4893021;29;20028;-59
2023/08/06 02:10:21;;;;;;;18.20;8.02;;;;;;;;;;4895265;29;20037;-60
2023/08/06 02:12:46;;;;;;;12.48;8.30;;;;;;;;;;4894675;29;20040;-59
2023/08/06 02:15:12;;;;;;;11.90;8.10;;;;;;;;;;4895460;29;20062;-59
2023/08/06 02:17:40;;;;;;;10.75;7.78;;;;;;;;;;4895167;29;20039;-59
2023/08/06 02:20:06;;;;;;;13.35;7.82;;;;;;;;;;4894377;29;20115;-60
2023/08/06 02:22:31;;;;;;;11.32;7.72;;;;;;;;;;4878292;29;20541;-59
2023/08/06 02:24:57;;;;;;;11.20;7.72;;;;;;;;;;4896738;29;20115;-60
2023/08/06 02:27:25;;;;;;;12.57;7.60;;;;;;;;;;4896035;29;20035;-59
2023/08/06 02:29:50;;;;;;;14.43;8.45;;;;;;;;;;4894574;29;20036;-59
2023/08/06 02:32:16;;;;;;;12.48;8.10;;;;;;;;;;4894586;29;20044;-59
2023/08/06 02:34:41;;;;;;;15.95;8.13;;;;;;;;;;4878295;29;20051;-59
2023/08/06 02:37:07;;;;;;;11.15;8.05;;;;;;;;;;4894979;29;20036;-60
2023/08/06 02:39:33;;;;;;;14.43;7.97;;;;;;;;;;4894742;29;20474;-59
2023/08/06 02:41:59;;;;;;;12.90;7.63;;;;;;;;;;4894606;29;20470;-59
2023/08/06 02:44:27;;;;;;;12.80;7.85;;;;;;;;;;4893726;29;20088;-59
2023/08/06 02:46:52;;;;;;;11.80;7.68;;;;;;;;;;4894922;29;20037;-59
2023/08/06 02:49:18;;;;;;;14.05;7.30;;;;;;;;;;4894452;29;20032;-59
2023/08/06 02:51:45;;;;;;;12.15;7.47;;;;;;;;;;4892039;29;20068;-59
2023/08/06 02:54:10;;;;;;;10.38;6.97;;;;;;;;;;4893926;29;20033;-60
2023/08/06 02:56:36;;;;;;;11.52;7.53;;;;;;;;;;4900883;29;20112;-59
2023/08/06 02:59:01;;;;;;;9.18;6.93;;;;;;;;;;4902577;29;20092;-59
2023/08/06 03:01:28;;;;;;;11.07;7.25;;;;;;;;;;4893927;29;20108;-60
2023/08/06 03:03:56;;;;;;;12.95;7.65;;;;;;;;;;4891365;29;20036;-59
2023/08/06 03:06:22;;;;;;;11.05;7.65;;;;;;;;;;4891526;29;20077;-59
2023/08/06 03:08:47;;;;;;;12.02;6.90;;;;;;;;;;4898828;29;20037;-59
2023/08/06 03:11:12;;;;;;;15.25;7.50;;;;;;;;;;4894400;29;20555;-59
2023/08/06 03:13:38;;;;;;;12.93;7.55;;;;;;;;;;4891609;29;20029;-59
2023/08/06 03:16:04;;;;;;;13.30;7.72;;;;;;;;;;4898075;29;20088;-58
2023/08/06 03:18:29;;;;;;;9.50;7.30;;;;;;;;;;4910070;29;20097;-59
2023/08/06 03:20:54;;;;;;;10.18;7.30;;;;;;;;;;4905737;29;20358;-60
2023/08/06 03:23:20;;;;;;;12.43;7.68;;;;;;;;;;4909342;29;20043;-60
2023/08/06 03:25:46;;;;;;;10.77;7.20;;;;;;;;;;4897529;29;20107;-60
2023/08/06 03:28:11;;;;;;;14.38;7.00;;;;;;;;;;4893934;29;20040;-60
2023/08/06 03:30:37;;;;;;;9.23;7.00;;;;;;;;;;4892455;29;20040;-61
2023/08/06 03:33:02;;;;;;;10.80;7.30;;;;;;;;;;4902281;29;20035;-60
2023/08/06 03:35:27;;;;;;;9.95;6.43;;;;;;;;;;4911720;29;20050;-59
2023/08/06 03:37:53;;;;;;;10.25;6.93;;;;;;;;;;4886112;29;20028;-60
2023/08/06 03:40:18;;;;;;;10.52;6.60;;;;;;;;;;4912089;29;20048;-60
2023/08/06 03:42:44;;;;;;;10.13;6.90;;;;;;;;;;4916292;29;20042;-60
2023/08/06 03:45:09;;;;;;;11.85;7.78;;;;;;;;;;4907884;29;20092;-60
2023/08/06 03:47:35;;;;;;;12.68;7.65;;;;;;;;;;4898950;29;20079;-60
2023/08/06 03:50:00;;;;;;;13.82;7.22;;;;;;;;;;4897376;29;20040;-60
2023/08/06 03:52:25;;;;;;;12.82;7.57;;;;;;;;;;4904218;29;20488;-60
2023/08/06 03:54:51;;;;;;;14.77;7.75;;;;;;;;;;4916077;29;20436;-60
2023/08/06 03:57:16;;;;;;;12.82;6.90;;;;;;;;;;4896842;29;20059;-60
2023/08/06 03:59:42;;;;;;;12.57;7.30;;;;;;;;;;4899204;29;20041;-59
2023/08/06 04:02:07;;;;;;;10.07;7.40;;;;;;;;;;4896058;29;20041;-60
2023/08/06 04:04:32;;;;;;;14.00;7.72;;;;;;;;;;4897791;29;20045;-60
2023/08/06 04:06:58;;;;;;;12.85;7.90;;;;;;;;;;4881192;29;20036;-59
2023/08/06 04:09:23;;;;;;;11.57;7.40;;;;;;;;;;4896631;29;20546;-59
2023/08/06 04:11:48;;;;;;;13.00;7.32;;;;;;;;;;4880977;29;20040;-59
2023/08/06 04:14:14;;;;;;;11.57;7.10;;;;;;;;;;4897884;29;20047;-59
2023/08/06 04:16:39;;;;;;;10.07;7.32;;;;;;;;;;4895067;29;20028;-59
2023/08/06 04:19:05;;;;;;;10.88;7.60;;;;;;;;;;4898765;29;20094;-59
2023/08/06 04:21:30;;;;;;;13.23;7.95;;;;;;;;;;4896729;29;20084;-60
2023/08/06 04:23:56;;;;;;;13.38;8.13;;;;;;;;;;4896700;29;20037;-59
2023/08/06 04:26:21;;;;;;;12.20;8.43;;;;;;;;;;4896624;29;20033;-59
2023/08/06 04:28:47;;;;;;;11.77;7.25;;;;;;;;;;4898899;29;20041;-59
2023/08/06 04:31:12;;;;;;;12.23;7.97;;;;;;;;;;4897668;29;20115;-59
2023/08/06 04:33:38;;;;;;;13.40;7.78;;;;;;;;;;4897472;29;20116;-59
2023/08/06 04:36:04;;;;;;;13.32;7.90;;;;;;;;;;4897451;29;20039;-59
2023/08/06 04:38:29;;;;;;;12.32;8.25;;;;;;;;;;4898040;29;20076;-59
2023/08/06 04:40:54;;;;;;;14.15;8.15;;;;;;;;;;4898782;29;20032;-59
2023/08/06 04:43:20;;;;;;;13.90;8.23;;;;;;;;;;4904719;29;20402;-59
2023/08/06 04:45:49;;;;;;;14.68;8.15;;;;;;;;;;4916076;29;20036;-59
2023/08/06 04:48:15;;;;;;;13.20;8.35;;;;;;;;;;4898109;29;20040;-60
2023/08/06 04:50:47;;;;;;;14.80;8.68;;;;;;;;;;4898094;29;20500;-59
2023/08/06 04:53:13;;;;;;;15.68;8.68;;;;;;;;;;4898660;29;20032;-59
2023/08/06 04:55:39;;;;;;;12.00;8.50;;;;;;;;;;4897853;29;20648;-59
2023/08/06 04:58:04;;;;;;;13.57;9.07;;;;;;;;;;4897957;29;20044;-59
2023/08/06 05:00:30;;;;;;;14.25;8.65;;;;;;;;;;4896950;29;20072;-59
2023/08/06 05:02:55;;;;;;;16.45;9.13;;;;;;;;;;4898255;29;20366;-59
2023/08/06 05:05:21;;;;;;;16.63;9.18;;;;;;;;;;4896931;29;20033;-60
2023/08/06 05:07:49;;;;;;;19.08;9.95;;;;;;;;;;4898368;29;20043;-59
2023/08/06 05:10:17;;;;;;;16.98;10.00;;;;;;;;;;4896190;29;20055;-59
2023/08/06 05:12:43;;;;;;;21.08;9.82;;;;;;;;;;4897681;29;20448;-60
2023/08/06 05:15:08;;;;;;;14.85;9.60;;;;;;;;;;4898303;29;20040;-59
2023/08/06 05:17:34;;;;;;;17.13;9.60;;;;;;;;;;4896293;29;20050;-59
2023/08/06 05:19:59;;;;;;;14.18;9.15;;;;;;;;;;4897440;29;20032;-59
2023/08/06 05:22:25;;;;;;;14.65;9.25;;;;;;;;;;4897239;29;20036;-59
2023/08/06 05:24:51;;;;;;;16.35;9.27;;;;;;;;;;4898091;29;20092;-59
2023/08/06 05:27:18;;;;;;;13.98;8.63;;;;;;;;;;4897836;29;20031;-59
2023/08/06 05:29:44;;;;;;;18.42;9.30;;;;;;;;;;4879780;29;20037;-59
2023/08/06 05:32:10;;;;;;;18.40;9.05;;;;;;;;;;4897037;29;20051;-59
2023/08/06 05:34:35;;;;;;;16.02;8.82;;;;;;;;;;4896361;29;20149;-61
2023/08/06 05:37:03;;;;;;;16.40;8.93;;;;;;;;;;4897694;29;20032;-61
2023/08/06 05:39:28;;;;;;;14.20;8.30;;;;;;;;;;4879869;29;20032;-61
2023/08/06 05:41:54;;;;;;;11.68;7.88;;;;;;;;;;4897644;29;20035;-60
2023/08/06 05:44:20;;;;;;;15.25;8.48;;;;;;;;;;4878918;29;20115;-61
2023/08/06 05:46:45;;;;;;;13.32;8.10;;;;;;;;;;4897448;29;20165;-61
2023/08/06 05:49:12;;;;;;;11.63;8.45;;;;;;;;;;4897488;29;20068;-61
2023/08/06 05:51:38;;;;;;;10.38;7.68;;;;;;;;;;4895796;29;20140;-60
2023/08/06 05:54:03;;;;;;;12.45;7.50;;;;;;;;;;4896942;29;20467;-61
2023/08/06 05:56:28;;;;;;;11.85;7.72;;;;;;;;;;4899995;29;20055;-61
2023/08/06 05:58:54;;;;;;;11.77;7.78;;;;;;;;;;4898279;29;20127;-61
2023/08/06 06:01:19;;;;;;;14.35;7.60;;;;;;;;;;4894361;29;20447;-61
2023/08/06 06:03:44;;;;;;;13.07;7.50;;;;;;;;;;4895645;29;20530;-60
2023/08/06 06:06:10;;;;;;;12.75;7.68;;;;;;;;;;4896509;29;20036;-61
2023/08/06 06:08:35;;;;;;;10.60;7.15;;;;;;;;;;4893231;29;20390;-60
2023/08/06 06:11:01;;;;;;;11.55;7.32;;;;;;;;;;4896592;29;20054;-60
2023/08/06 06:13:26;;;;;;;14.02;7.22;;;;;;;;;;4896463;29;20052;-61
2023/08/06 06:15:55;;;;;;;12.27;7.20;;;;;;;;;;4896875;29;20036;-60
2023/08/06 06:18:20;;;;;;;10.48;7.18;;;;;;;;;;4906357;29;20375;-61
2023/08/06 06:20:46;;;;;;;10.32;7.00;;;;;;;;;;4901524;29;20101;-61
2023/08/06 06:23:11;;;;;;;11.23;6.97;;;;;;;;;;4893128;29;20043;-61
2023/08/06 06:25:36;;;;;;;10.93;7.15;;;;;;;;;;4895368;29;20039;-61
2023/08/06 06:28:02;;;;;;;11.57;7.15;;;;;;;;;;4896499;29;20032;-61
2023/08/06 06:30:27;;;;;;;8.23;5.90;;;;;;;;;;4896191;29;20037;-61
2023/08/06 06:32:52;;;;;;;9.48;6.30;;;;;;;;;;4896967;29;20359;-61
2023/08/06 06:35:18;;;;;;;12.80;5.65;;;;;;;;;;4896724;29;20073;-61
2023/08/06 06:37:43;;;;;;;8.07;5.75;;;;;;;;;;4895735;29;20035;-61
2023/08/06 06:40:09;;;;;;;8.80;5.30;;;;;;;;;;4895902;29;20184;-61
2023/08/06 06:42:34;;;;;;;8.90;5.55;;;;;;;;;;4894050;29;20124;-62
2023/08/06 06:45:00;;;;;;;8.52;4.90;;;;;;;;;;4896500;29;20105;-62
2023/08/06 06:47:28;;;;;;;8.15;5.00;;;;;;;;;;4895723;29;20033;-62
2023/08/06 06:49:55;;;;;;;6.15;4.40;;;;;;;;;;4889668;29;20140;-63
2023/08/06 06:52:23;;;;;;;7.13;4.53;;;;;;;;;;4904674;29;20036;-63
2023/08/06 06:54:49;;;;;;;7.30;4.50;;;;;;;;;;4897990;29;20032;-62
2023/08/06 06:57:14;;;;;;;7.40;3.50;;;;;;;;;;4896438;29;20045;-62
2023/08/06 06:59:40;;;;;;;8.13;3.60;;;;;;;;;;4895180;29;20563;-62
2023/08/06 07:02:05;;;;;;;5.28;3.10;;;;;;;;;;4896439;29;20036;-62
2023/08/06 07:04:31;;;;;;;5.40;3.67;;;;;;;;;;4895892;29;20031;-62
2023/08/06 07:06:56;;;;;;;5.63;3.10;;;;;;;;;;4899475;29;20065;-62
2023/08/06 07:09:21;;;;;;;4.50;3.08;;;;;;;;;;4900474;29;20031;-63
2023/08/06 07:11:47;;;;;;;6.00;2.80;;;;;;;;;;4883331;29;20071;-62
2023/08/06 07:14:14;;;;;;;4.95;3.00;;;;;;;;;;4900465;29;20041;-62
2023/08/06 07:16:39;;;;;;;5.90;3.10;;;;;;;;;;4900404;29;20040;-62
2023/08/06 07:19:05;;;;;;;4.72;3.00;;;;;;;;;;4883361;29;20028;-62
2023/08/06 07:21:31;;;;;;;4.72;2.90;;;;;;;;;;4899409;29;20028;-62
2023/08/06 07:23:57;;;;;;;5.63;2.60;;;;;;;;;;4900184;29;20036;-62
2023/08/06 07:26:22;;;;;;;4.00;2.75;;;;;;;;;;4900350;29;20032;-62
2023/08/06 07:28:47;;;;;;;6.65;2.83;;;;;;;;;;4899025;29;20055;-62
2023/08/06 07:31:13;;;;;;;4.28;2.97;;;;;;;;;;4899183;29;20168;-62
2023/08/06 07:33:38;;;;;;;4.13;2.65;;;;;;;;;;4896977;29;20397;-64
2023/08/06 07:36:14;;;;;;;6.93;2.50;;;;;;;;;;4899655;29;20048;-61
2023/08/06 07:38:40;;;;;;;4.85;2.80;;;;;;;;;;4894986;29;20036;-62
2023/08/06 07:41:05;;;;;;;5.40;2.58;;;;;;;;;;4879884;29;20029;-62
2023/08/06 07:43:31;;;;;;;7.38;2.90;;;;;;;;;;4898818;29;20047;-62
2023/08/06 07:46:00;;;;;;;5.38;2.33;;;;;;;;;;4895504;29;20438;-60
2023/08/06 07:48:26;;;;;;;4.78;2.60;;;;;;;;;;4896851;29;20136;-60
2023/08/06 07:50:53;;;;;;;4.50;2.78;;;;;;;;;;4898136;29;20119;-60
2023/08/06 07:53:20;;;;;;;5.57;2.40;;;;;;;;;;4899665;29;20040;-60
2023/08/06 07:55:53;;;;;;;6.20;2.50;;;;;;;;;;4898780;29;20067;-60
2023/08/06 07:58:20;;;;;;;5.03;2.38;;;;;;;;;;4899484;29;20041;-60
2023/08/06 08:00:46;;;;;;;3.70;2.20;;;;;;;;;;4898801;29;20314;-60
2023/08/06 08:03:13;;;;;;;4.47;2.20;;;;;;;;;;4898268;29;20488;-60
2023/08/06 08:05:39;;;;;;;5.30;2.35;;;;;;;;;;4898177;29;20119;-61
2023/08/06 08:08:04;;;;;;;5.50;2.00;;;;;;;;;;4898526;29;20128;-61
2023/08/06 08:10:31;;;;;;;3.50;1.98;;;;;;;;;;4898367;29;20063;-61
2023/08/06 08:12:56;;;;;;;3.50;2.20;;;;;;;;;;4899120;29;20087;-60
2023/08/06 08:15:22;;;;;;;4.68;2.58;;;;;;;;;;4899630;29;20478;-60
2023/08/06 08:17:47;;;;;;;4.65;2.58;;;;;;;;;;4897416;29;20754;-60
2023/08/06 08:20:13;;;;;;;3.97;2.15;;;;;;;;;;4906055;29;20032;-60
2023/08/06 08:22:38;;;;;;;6.15;2.55;;;;;;;;;;4917129;29;20040;-60
2023/08/06 08:25:04;;;;;;;4.93;2.22;;;;;;;;;;4905387;29;20435;-60
2023/08/06 08:27:30;;;;;;;5.53;2.55;;;;;;;;;;4898279;29;20040;-61
2023/08/06 08:29:56;;;;;;;4.57;2.53;;;;;;;;;;4899093;29;20084;-61
2023/08/06 08:32:21;;;;;;;5.22;2.60;;;;;;;;;;4899158;29;20374;-61
2023/08/06 08:34:46;;;;;;;5.68;2.67;;;;;;;;;;4897493;29;20033;-61
2023/08/06 08:37:13;;;;;;;3.97;2.72;;;;;;;;;;4896434;29;20056;-61
2023/08/06 08:39:38;;;;;;;6.00;2.97;;;;;;;;;;4896558;29;20040;-61
2023/08/06 08:42:06;;;;;;;7.20;3.67;;;;;;;;;;4897609;29;20028;-62
2023/08/06 08:44:33;;;;;;;5.93;3.85;;;;;;;;;;4897912;29;20389;-62
2023/08/06 08:46:59;;;;;;;6.53;4.50;;;;;;;;;;4898830;29;20028;-62
2023/08/06 08:49:27;;;;;;;9.57;4.95;;;;;;;;;;4898542;29;20115;-62
2023/08/06 08:51:53;;;;;;;7.90;5.57;;;;;;;;;;4897617;29;20051;-60
2023/08/06 08:54:19;;;;;;;4.97;4.07;;;;;;;;;;4899261;29;20394;-60
2023/08/06 08:56:48;;;;;;;5.93;4.18;;;;;;;;;;4897520;29;20053;-61
2023/08/06 08:59:13;;;;;;;7.93;5.15;;;;;;;;;;4897417;29;20096;-61
2023/08/06 09:01:40;;;;;;;10.20;4.68;;;;;;;;;;4896853;29;20379;-61
2023/08/06 09:04:06;;;;;;;8.02;5.25;;;;;;;;;;4898040;29;20371;-61
2023/08/06 09:06:36;;;;;;;7.43;5.53;;;;;;;;;;4896133;29;20484;-62
2023/08/06 09:09:08;;;;;;;10.38;5.80;;;;;;;;;;4898233;29;20116;-61
2023/08/06 09:11:45;;;;;;;9.38;5.13;;;;;;;;;;4897122;29;20461;-63
2023/08/06 09:14:11;;;;;;;8.70;5.40;;;;;;;;;;4897678;29;20051;-61
2023/08/06 09:16:37;;;;;;;7.93;6.00;;;;;;;;;;4896586;29;20055;-62
2023/08/06 09:19:10;;;;;;;8.55;6.25;;;;;;;;;;4873059;29;20470;-61
2023/08/06 09:21:42;;;;;;;10.02;6.20;;;;;;;;;;4886924;29;20040;-61
2023/08/06 09:24:13;;;;;;;8.18;5.93;;;;;;;;;;4887131;29;20032;-60
2023/08/06 09:26:44;;;;;;;9.95;6.05;;;;;;;;;;4895687;29;20044;-61
2023/08/06 09:29:12;;;;;;;;;;;;;;;;;;4896154;29;20124;-60
2023/08/06 09:31:40;;;;;;;9.27;5.80;;;;;;;;;;4890535;29;20029;-60
2023/08/06 09:34:19;;;;;;;8.48;6.28;;;;;;;;;;4891236;29;20040;-60
2023/08/06 09:36:53;;;;;;;9.80;6.53;;;;;;;;;;4889531;29;20036;-60
2023/08/06 09:39:21;;;;;;;11.65;7.43;;;;;;;;;;4888933;29;20052;-60
2023/08/06 09:41:48;;;;;;;11.95;8.25;;;;;;;;;;4894537;29;20072;-60
2023/08/06 09:44:18;;;;;;;11.57;9.02;;;;;;;;;;4891993;29;20043;-60
2023/08/06 09:46:49;;;;;;;10.52;8.45;;;;;;;;;;4895082;29;20120;-60
2023/08/06 09:49:14;;;;;;;9.25;7.72;;;;;;;;;;4897725;29;20040;-61
2023/08/06 09:51:41;;;;;;;10.15;8.57;;;;;;;;;;4893978;29;20096;-61
2023/08/06 09:54:07;;;;;;;10.20;7.75;;;;;;;;;;4897155;29;20044;-61
2023/08/06 09:56:37;;;;;;;8.57;7.68;;;;;;;;;;4896809;29;20049;-61
2023/08/06 09:59:05;;;;;;;9.15;7.68;;;;;;;;;;4893872;29;20151;-61
2023/08/06 10:01:32;;;;;;;7.13;6.32;;;;;;;;;;4889955;29;20043;-61
2023/08/06 10:03:58;;;;;;;6.97;6.20;;;;;;;;;;4888983;29;20054;-61
2023/08/06 10:06:24;;;;;;;6.85;5.60;;;;;;;;;;4889347;29;20043;-65
2023/08/06 10:08:49;;;;;;;6.53;5.85;;;;;;;;;;4886470;29;20048;-65
2023/08/06 10:11:17;;;;;;;11.13;6.03;;;;;;;;;;4888575;29;20040;-65
2023/08/06 10:13:43;;;;;;;7.03;4.93;;;;;;;;;;4889530;29;20123;-65
2023/08/06 10:16:09;;;;;;;7.20;4.75;;;;;;;;;;4891271;29;20037;-64
2023/08/06 10:18:38;;;;;;;8.57;4.65;;;;;;;;;;4892826;29;20040;-66
2023/08/06 10:21:08;;;;;;;6.90;4.20;;;;;;;;;;4888627;29;20036;-64
2023/08/06 10:23:38;;;;;;;5.88;4.30;;;;;;;;;;4896820;29;20044;-64
2023/08/06 10:26:04;;;;;;;7.93;4.40;;;;;;;;;;4888267;29;20487;-64
2023/08/06 10:28:37;;;;;;;6.03;4.10;;;;;;;;;;4887885;29;20124;-66
2023/08/06 10:31:06;;;;;;;5.53;4.05;;;;;;;;;;4887702;29;20068;-65
2023/08/06 10:33:43;;;;;;;5.50;3.83;;;;;;;;;;4892659;29;20047;-62
2023/08/06 10:36:09;;;;;;;4.88;3.75;;;;;;;;;;4892470;29;20029;-62
2023/08/06 10:38:37;;;;;;;4.70;3.67;;;;;;;;;;4895643;29;20047;-70
2023/08/06 10:41:03;;;;;;;4.55;3.40;;;;;;;;;;4894092;29;20457;-63
2023/08/06 10:43:32;;;;;;;7.00;3.88;;;;;;;;;;4887634;29;20037;-59
2023/08/06 10:45:59;;;;;;;4.70;3.70;;;;;;;;;;4887611;29;20033;-61
2023/08/06 10:48:54;;;;;;;4.63;3.67;;;;;;;;;;4888457;29;20029;-60
2023/08/06 10:51:19;;;;;;;6.50;3.70;;;;;;;;;;4873457;29;20063;-60
2023/08/06 10:53:48;;;;;;;6.00;3.90;;;;;;;;;;4889991;29;20041;-62
2023/08/06 10:56:14;;;;;;;4.95;3.72;;;;;;;;;;4896469;29;21554;-62
2023/08/06 10:58:40;;;;;;;4.53;3.50;;;;;;;;;;4895436;29;20041;-63
2023/08/06 11:01:06;;;;;;;6.78;5.30;;;;;;;;;;4890933;29;20033;-61
2023/08/06 11:03:33;;;;;;;5.50;4.25;;;;;;;;;;4896227;29;20474;-62
2023/08/06 11:05:59;;;;;;;5.03;3.70;;;;;;;;;;4894332;29;20962;-63
2023/08/06 11:08:29;;;;;;;5.93;3.38;;;;;;;;;;4888357;29;20754;-62
2023/08/06 11:10:55;;;;;;;3.90;3.08;;;;;;;;;;4886491;29;20036;-63
2023/08/06 11:13:21;;;;;;;5.93;2.95;;;;;;;;;;4887223;29;20156;-61
2023/08/06 11:15:47;;;;;;;3.65;3.03;;;;;;;;;;4885306;29;20068;-62
2023/08/06 11:18:13;;;;;;;5.43;3.15;;;;;;;;;;4896596;29;20140;-62
2023/08/06 11:20:39;;;;;;;5.25;3.28;;;;;;;;;;4895955;29;20041;-61
2023/08/06 11:23:05;;;;;;;4.80;3.60;;;;;;;;;;4896591;29;20115;-60
2023/08/06 11:25:30;;;;;;;6.22;3.42;;;;;;;;;;4896148;29;20374;-62
2023/08/06 11:27:56;;;;;;;5.75;3.70;;;;;;;;;;4893888;29;20032;-62
2023/08/06 11:30:21;;;;;;;13.93;5.45;;;;;;;;;;4894398;29;20033;-60
2023/08/06 11:32:48;;;;;;;8.70;5.85;;;;;;;;;;4889130;29;20032;-60
2023/08/06 11:35:15;;;;;;;9.57;5.88;;;;;;;;;;4878661;29;20131;-60
2023/08/06 11:37:45;;;;;;;7.85;5.90;;;;;;;;;;4895969;29;20047;-60
2023/08/06 11:40:11;;;;;;;13.60;6.57;;;;;;;;;;4895415;29;20044;-60
2023/08/06 11:42:37;;;;;;;8.35;6.95;;;;;;;;;;4896200;29;20132;-60
2023/08/06 11:45:04;;;;;;;10.32;7.85;;;;;;;;;;4890630;29;20151;-62
2023/08/06 11:47:29;;;;;;;9.52;7.30;;;;;;;;;;4893114;29;20038;-61
2023/08/06 11:49:55;;;;;;;8.27;7.28;;;;;;;;;;4894737;29;20036;-61
2023/08/06 11:52:22;;;;;;;9.30;7.85;;;;;;;;;;4896618;29;20040;-62
2023/08/06 11:55:00;;;;;;;11.02;8.75;;;;;;;;;;4898704;29;20043;-61
2023/08/06 11:57:25;;;;;;;13.55;9.98;;;;;;;;;;4900027;29;20395;-61
2023/08/06 11:59:50;;;;;;;15.20;11.40;;;;;;;;;;4899832;29;20065;-61
2023/08/06 12:02:16;;;;;;;14.55;11.77;;;;;;;;;;4899602;29;20036;-62
2023/08/06 12:04:59;;;;;;;14.63;11.82;;;;;;;;;;4897892;29;20070;-61
2023/08/06 12:07:32;;;;;;;15.73;12.60;;;;;;;;;;4892207;29;20478;-61
2023/08/06 12:09:59;;;;;;;15.98;12.35;;;;;;;;;;4896756;29;20032;-61
2023/08/06 12:12:25;;;;;;;15.15;12.57;;;;;;;;;;4899455;29;20037;-61
2023/08/06 12:14:50;;;;;;;16.20;12.57;;;;;;;;;;4898013;29;20055;-61
2023/08/06 12:17:16;;;;;;;17.27;12.63;;;;;;;;;;4899455;29;20488;-61
2023/08/06 12:19:41;;;;;;;14.25;11.63;;;;;;;;;;4896813;29;20386;-61
2023/08/06 12:22:06;;;;;;;17.63;12.80;;;;;;;;;;4897812;29;20028;-61
2023/08/06 12:24:32;;;;;;;15.27;11.73;;;;;;;;;;4897783;29;20486;-60
2023/08/06 12:26:58;;;;;;;12.82;9.40;;;;;;;;;;4898616;29;20033;-62
2023/08/06 12:29:25;;;;;;;13.73;9.25;;;;;;;;;;4899584;29;20036;-62
2023/08/06 12:31:51;;;;;;;14.65;9.07;;;;;;;;;;4899187;29;20040;-62
2023/08/06 12:34:16;;;;;;;12.85;9.07;;;;;;;;;;4899380;29;20496;-62
2023/08/06 12:36:42;;;;;;;13.10;9.27;;;;;;;;;;4898450;29;20031;-61
2023/08/06 12:39:07;;;;;;;13.20;9.02;;;;;;;;;;4898352;29;20104;-61
2023/08/06 12:41:32;;;;;;;8.88;5.32;;;;;;;;;;4897941;29;20183;-61
2023/08/06 12:43:58;;;;;;;7.55;5.03;;;;;;;;;;4899012;29;20112;-60
2023/08/06 12:46:23;;;;;;;7.25;5.03;;;;;;;;;;4897662;29;20044;-61
2023/08/06 12:48:49;;;;;;;6.57;5.28;;;;;;;;;;4897820;29;20039;-61
2023/08/06 12:51:14;;;;;;;7.40;5.03;;;;;;;;;;4898802;29;20088;-61
2023/08/06 12:53:39;;;;;;;4.25;3.47;;;;;;;;;;4897639;29;20202;-61
2023/08/06 12:56:05;;;;;;;3.03;1.88;;;;;;;;;;4896608;29;20037;-60
2023/08/06 12:58:31;;;;;;;3.30;2.25;;;;;;;;;;4895706;29;20405;-60
2023/08/06 13:00:56;;;;;;;4.18;2.40;;;;;;;;;;4880677;29;20036;-62
2023/08/06 13:03:22;;;;;;;5.40;2.25;;;;;;;;;;4884702;29;20071;-60
2023/08/06 13:05:47;;;;;;;5.93;2.35;;;;;;;;;;4902248;29;20119;-60
2023/08/06 13:08:13;;;;;;;1.63;1.35;;;;;;;;;;4898327;29;20036;-61
2023/08/06 13:10:38;;;;;;;3.05;1.42;;;;;;;;;;4898378;29;20161;-61
2023/08/06 13:13:03;;;;;;;1.75;1.13;;;;;;;;;;4896044;29;20032;-61
2023/08/06 13:15:29;;;;;;;2.38;1.60;;;;;;;;;;4881310;29;20039;-61
2023/08/06 13:17:54;;;;;;;2.33;1.60;;;;;;;;;;4904823;29;20521;-61
2023/08/06 13:20:20;;;;;;;2.45;1.60;;;;;;;;;;4905286;29;20036;-60
2023/08/06 13:22:46;;;;;;;2.10;1.60;;;;;;;;;;4897281;29;20061;-61
2023/08/06 13:25:14;;;;;;;1.50;1.30;;;;;;;;;;4895385;29;20032;-62
2023/08/06 13:27:39;;;;;;;2.00;1.50;;;;;;;;;;4897429;29;20514;-61
2023/08/06 13:30:05;;;;;;;1.98;1.40;;;;;;;;;;4895790;29;20160;-61
2023/08/06 13:32:32;;;;;;;3.10;1.70;;;;;;;;;;4897588;29;20036;-61
2023/08/06 13:34:58;;;;;;;3.22;2.00;;;;;;;;;;4897021;29;20040;-61
2023/08/06 13:37:23;;;;;;;2.22;1.63;;;;;;;;;;4897936;29;20033;-61
2023/08/06 13:39:48;;;;;;;2.78;1.58;;;;;;;;;;4896751;29;20032;-61
2023/08/06 13:42:14;;;;;;;1.92;1.45;;;;;;;;;;4880337;29;20111;-61
2023/08/06 13:44:39;;;;;;;2.67;1.48;;;;;;;;;;4897448;29;20511;-61
2023/08/06 13:47:05;;;;;;;2.45;1.67;;;;;;;;;;4895605;29;20029;-61
2023/08/06 13:49:30;;;;;;;2.35;1.70;;;;;;;;;;4897460;29;20029;-62
2023/08/06 13:51:55;;;;;;;2.10;1.80;;;;;;;;;;4896697;29;20427;-61
2023/08/06 13:54:23;;;;;;;2.25;1.70;;;;;;;;;;4897526;29;20115;-62
2023/08/06 13:56:49;;;;;;;2.50;1.60;;;;;;;;;;4893678;29;20054;-61
2023/08/06 13:59:15;;;;;;;1.80;1.50;;;;;;;;;;4897544;29;20032;-61
2023/08/06 14:01:40;;;;;;;2.40;1.60;;;;;;;;;;4897261;29;20067;-61
2023/08/06 14:04:05;;;;;;;3.45;1.90;;;;;;;;;;4895598;29;20028;-61
2023/08/06 14:06:31;;;;;;;2.90;1.70;;;;;;;;;;4896916;29;20028;-61
2023/08/06 14:08:56;;;;;;;3.40;2.22;;;;;;;;;;4896478;29;20033;-61
2023/08/06 14:11:22;;;;;;;2.55;1.92;;;;;;;;;;4897013;29;20083;-61
2023/08/06 14:13:47;;;;;;;2.83;1.90;;;;;;;;;;4896731;29;20060;-61
2023/08/06 14:16:13;;;;;;;2.85;2.38;;;;;;;;;;4895721;29;20085;-61
2023/08/06 14:18:38;;;;;;;2.67;2.00;;;;;;;;;;4894847;29;20037;-61
2023/08/06 14:21:04;;;;;;;2.58;1.88;;;;;;;;;;4895512;29;20423;-62
2023/08/06 14:23:29;;;;;;;1.63;1.40;;;;;;;;;;4896939;29;20039;-61
2023/08/06 14:25:55;;;;;;;1.70;1.30;;;;;;;;;;4894642;29;20119;-62
2023/08/06 14:28:20;;;;;;;1.90;1.25;;;;;;;;;;4897088;29;20037;-62
2023/08/06 14:30:46;;;;;;;1.42;1.33;;;;;;;;;;4896649;29;20024;-62